sensor_id;sensor_type;location;lat;lon;timestamp;pressure;altitude;pressure_sealevel;temperature;humidity
61898;BME280;47850;50.274;18.908;2023-07-29T00:01:37;97529.16;;;16.80;100.00
61898;BME280;47850;50.274;18.908;2023-07-29T00:04:08;97527.56;;;16.78;100.00
61898;BME280;47850;50.274;18.908;2023-07-29T00:06:36;97523.19;;;16.80;100.00
61898;BME280;47850;50.274;18.908;2023-07-29T00:09:04;97528.31;;;16.80;99.96
61898;BME280;47850;50.274;18.908;2023-07-29T00:11:32;97533.02;;;16.80;99.97
61898;BME280;47850;50.274;18.908;2023-07-29T00:14:01;97532.71;;;16.81;99.82
61898;BME280;47850;50.274;18.908;2023-07-29T00:16:29;97532.50;;;16.82;99.93
61898;BME280;47850;50.274;18.908;2023-07-29T00:18:57;97536.48;;;16.86;100.00
61898;BME280;47850;50.274;18.908;2023-07-29T00:21:24;97536.05;;;16.90;100.00
61898;BME280;47850;50.274;18.908;2023-07-29T00:23:52;97536.02;;;16.94;100.00
61898;BME280;47850;50.274;18.908;2023-07-29T00:26:20;97537.48;;;16.97;100.00
61898;BME280;47850;50.274;18.908;2023-07-29T00:28:49;97532.58;;;17.01;100.00
61898;BME280;47850;50.274;18.908;2023-07-29T00:31:17;97528.50;;;17.04;100.00
61898;BME280;47850;50.274;18.908;2023-07-29T00:33:45;97527.43;;;17.07;100.00
61898;BME280;47850;50.274;18.908;2023-07-29T00:36:13;97526.51;;;17.09;100.00
61898;BME280;47850;50.274;18.908;2023-07-29T00:38:41;97527.36;;;17.08;100.00
61898;BME280;47850;50.274;18.908;2023-07-29T00:41:09;97526.10;;;17.07;100.00
61898;BME280;47850;50.274;18.908;2023-07-29T00:43:40;97521.06;;;17.08;100.00
61898;BME280;47850;50.274;18.908;2023-07-29T00:46:09;97522.31;;;17.07;100.00
61898;BME280;47850;50.274;18.908;2023-07-29T00:48:37;97518.69;;;17.06;100.00
61898;BME280;47850;50.274;18.908;2023-07-29T00:51:05;97517.29;;;17.07;100.00
61898;BME280;47850;50.274;18.908;2023-07-29T00:53:33;97511.77;;;17.08;100.00
61898;BME280;47850;50.274;18.908;2023-07-29T00:56:01;97517.30;;;17.09;100.00
61898;BME280;47850;50.274;18.908;2023-07-29T00:58:29;97518.40;;;17.09;100.00
61898;BME280;47850;50.274;18.908;2023-07-29T01:00:56;97517.61;;;17.09;100.00
61898;BME280;47850;50.274;18.908;2023-07-29T01:03:25;97515.47;;;17.08;100.00
61898;BME280;47850;50.274;18.908;2023-07-29T01:08:55;97512.48;;;17.08;100.00
61898;BME280;47850;50.274;18.908;2023-07-29T01:11:35;97506.41;;;17.07;100.00
61898;BME280;47850;50.274;18.908;2023-07-29T01:16:52;97501.42;;;17.03;100.00
61898;BME280;47850;50.274;18.908;2023-07-29T01:21:58;97503.58;;;17.05;100.00
61898;BME280;47850;50.274;18.908;2023-07-29T01:24:26;97506.25;;;17.06;100.00
61898;BME280;47850;50.274;18.908;2023-07-29T01:26:53;97505.80;;;17.08;100.00
61898;BME280;47850;50.274;18.908;2023-07-29T01:29:21;97507.61;;;17.07;100.00
61898;BME280;47850;50.274;18.908;2023-07-29T01:31:52;97508.20;;;17.04;100.00
61898;BME280;47850;50.274;18.908;2023-07-29T01:34:37;97505.52;;;17.04;100.00
61898;BME280;47850;50.274;18.908;2023-07-29T01:37:09;97505.13;;;17.04;100.00
61898;BME280;47850;50.274;18.908;2023-07-29T01:39:42;97506.08;;;17.05;100.00
61898;BME280;47850;50.274;18.908;2023-07-29T01:42:12;97509.33;;;17.06;100.00
61898;BME280;47850;50.274;18.908;2023-07-29T01:44:40;97510.27;;;17.07;100.00
61898;BME280;47850;50.274;18.908;2023-07-29T01:47:10;97510.30;;;17.09;100.00
61898;BME280;47850;50.274;18.908;2023-07-29T01:49:38;97514.16;;;17.10;100.00
61898;BME280;47850;50.274;18.908;2023-07-29T01:52:06;97518.25;;;17.10;99.97
61898;BME280;47850;50.274;18.908;2023-07-29T01:54:34;97513.91;;;17.09;100.00
61898;BME280;47850;50.274;18.908;2023-07-29T01:57:01;97513.83;;;17.09;100.00
61898;BME280;47850;50.274;18.908;2023-07-29T01:59:29;97517.29;;;17.08;100.00
61898;BME280;47850;50.274;18.908;2023-07-29T02:01:57;97520.20;;;17.08;100.00
61898;BME280;47850;50.274;18.908;2023-07-29T02:04:24;97519.58;;;17.09;100.00
61898;BME280;47850;50.274;18.908;2023-07-29T02:06:52;97523.42;;;17.08;100.00
61898;BME280;47850;50.274;18.908;2023-07-29T02:09:20;97524.34;;;17.05;100.00
61898;BME280;47850;50.274;18.908;2023-07-29T02:11:48;97526.14;;;17.03;100.00
61898;BME280;47850;50.274;18.908;2023-07-29T02:14:15;97533.59;;;17.01;100.00
61898;BME280;47850;50.274;18.908;2023-07-29T02:16:43;97533.73;;;16.99;100.00
61898;BME280;47850;50.274;18.908;2023-07-29T02:19:11;97536.05;;;16.96;100.00
61898;BME280;47850;50.274;18.908;2023-07-29T02:21:39;97534.63;;;16.94;100.00
61898;BME280;47850;50.274;18.908;2023-07-29T02:24:06;97528.99;;;16.92;100.00
61898;BME280;47850;50.274;18.908;2023-07-29T02:26:35;97531.26;;;16.90;100.00
61898;BME280;47850;50.274;18.908;2023-07-29T02:29:02;97530.20;;;16.88;100.00
61898;BME280;47850;50.274;18.908;2023-07-29T02:31:30;97533.02;;;16.86;100.00
61898;BME280;47850;50.274;18.908;2023-07-29T02:33:58;97533.85;;;16.84;100.00
61898;BME280;47850;50.274;18.908;2023-07-29T02:36:26;97535.63;;;16.81;100.00
61898;BME280;47850;50.274;18.908;2023-07-29T02:38:53;97535.73;;;16.77;100.00
61898;BME280;47850;50.274;18.908;2023-07-29T02:41:21;97538.54;;;16.73;100.00
61898;BME280;47850;50.274;18.908;2023-07-29T02:43:49;97539.76;;;16.70;100.00
61898;BME280;47850;50.274;18.908;2023-07-29T02:46:17;97538.30;;;16.67;100.00
61898;BME280;47850;50.274;18.908;2023-07-29T02:48:45;97541.41;;;16.63;100.00
61898;BME280;47850;50.274;18.908;2023-07-29T02:51:13;97539.86;;;16.59;100.00
61898;BME280;47850;50.274;18.908;2023-07-29T02:53:41;97547.14;;;16.56;100.00
61898;BME280;47850;50.274;18.908;2023-07-29T02:56:09;97546.73;;;16.54;100.00
61898;BME280;47850;50.274;18.908;2023-07-29T02:58:37;97544.73;;;16.52;100.00
61898;BME280;47850;50.274;18.908;2023-07-29T03:01:06;97542.02;;;16.49;100.00
61898;BME280;47850;50.274;18.908;2023-07-29T03:03:34;97539.79;;;16.47;100.00
61898;BME280;47850;50.274;18.908;2023-07-29T03:06:03;97540.55;;;16.45;100.00
61898;BME280;47850;50.274;18.908;2023-07-29T03:08:31;97543.35;;;16.43;100.00
61898;BME280;47850;50.274;18.908;2023-07-29T03:11:14;97544.98;;;16.40;100.00
61898;BME280;47850;50.274;18.908;2023-07-29T03:13:42;97544.58;;;16.39;100.00
61898;BME280;47850;50.274;18.908;2023-07-29T03:16:15;97545.27;;;16.38;100.00
61898;BME280;47850;50.274;18.908;2023-07-29T03:18:44;97546.18;;;16.36;100.00
61898;BME280;47850;50.274;18.908;2023-07-29T03:21:12;97546.34;;;16.36;100.00
61898;BME280;47850;50.274;18.908;2023-07-29T03:23:40;97548.46;;;16.37;100.00
61898;BME280;47850;50.274;18.908;2023-07-29T03:26:08;97548.64;;;16.38;100.00
61898;BME280;47850;50.274;18.908;2023-07-29T03:28:40;97550.70;;;16.38;100.00
61898;BME280;47850;50.274;18.908;2023-07-29T03:31:09;97551.72;;;16.38;100.00
61898;BME280;47850;50.274;18.908;2023-07-29T03:33:37;97550.48;;;16.40;100.00
61898;BME280;47850;50.274;18.908;2023-07-29T03:36:05;97554.02;;;16.41;100.00
61898;BME280;47850;50.274;18.908;2023-07-29T03:38:33;97551.17;;;16.46;100.00
61898;BME280;47850;50.274;18.908;2023-07-29T03:41:02;97551.77;;;16.49;100.00
61898;BME280;47850;50.274;18.908;2023-07-29T03:43:30;97552.21;;;16.53;100.00
61898;BME280;47850;50.274;18.908;2023-07-29T03:45:58;97554.38;;;16.56;100.00
61898;BME280;47850;50.274;18.908;2023-07-29T03:48:26;97560.27;;;16.61;100.00
61898;BME280;47850;50.274;18.908;2023-07-29T03:50:54;97557.78;;;16.65;100.00
61898;BME280;47850;50.274;18.908;2023-07-29T03:53:22;97555.87;;;16.69;100.00
61898;BME280;47850;50.274;18.908;2023-07-29T03:55:49;97556.64;;;16.74;100.00
61898;BME280;47850;50.274;18.908;2023-07-29T03:58:17;97561.19;;;16.81;100.00
61898;BME280;47850;50.274;18.908;2023-07-29T04:00:45;97562.77;;;16.88;100.00
61898;BME280;47850;50.274;18.908;2023-07-29T04:03:13;97562.80;;;16.95;100.00
61898;BME280;47850;50.274;18.908;2023-07-29T04:05:41;97568.63;;;17.02;100.00
61898;BME280;47850;50.274;18.908;2023-07-29T04:08:09;97566.88;;;17.08;100.00
61898;BME280;47850;50.274;18.908;2023-07-29T04:10:37;97572.77;;;17.15;100.00
61898;BME280;47850;50.274;18.908;2023-07-29T04:13:05;97580.45;;;17.21;100.00
61898;BME280;47850;50.274;18.908;2023-07-29T04:15:33;97575.95;;;17.26;100.00
61898;BME280;47850;50.274;18.908;2023-07-29T04:18:01;97575.13;;;17.31;100.00
61898;BME280;47850;50.274;18.908;2023-07-29T04:20:28;97574.95;;;17.36;100.00
61898;BME280;47850;50.274;18.908;2023-07-29T04:22:56;97575.15;;;17.40;100.00
61898;BME280;47850;50.274;18.908;2023-07-29T04:25:24;97579.04;;;17.45;100.00
61898;BME280;47850;50.274;18.908;2023-07-29T04:27:52;97578.84;;;17.49;99.88
61898;BME280;47850;50.274;18.908;2023-07-29T04:30:19;97575.80;;;17.52;99.76
61898;BME280;47850;50.274;18.908;2023-07-29T04:32:47;97579.52;;;17.55;99.55
61898;BME280;47850;50.274;18.908;2023-07-29T04:35:15;97575.00;;;17.61;99.31
61898;BME280;47850;50.274;18.908;2023-07-29T04:37:43;97577.39;;;17.64;98.90
61898;BME280;47850;50.274;18.908;2023-07-29T04:40:11;97577.27;;;17.67;98.71
61898;BME280;47850;50.274;18.908;2023-07-29T04:42:39;97576.05;;;17.73;98.40
61898;BME280;47850;50.274;18.908;2023-07-29T04:45:07;97572.09;;;17.81;98.13
61898;BME280;47850;50.274;18.908;2023-07-29T04:47:35;97574.45;;;17.91;98.19
61898;BME280;47850;50.274;18.908;2023-07-29T04:50:02;97579.90;;;17.99;97.92
61898;BME280;47850;50.274;18.908;2023-07-29T04:52:30;97582.48;;;18.08;97.60
61898;BME280;47850;50.274;18.908;2023-07-29T04:54:58;97578.11;;;18.15;97.18
61898;BME280;47850;50.274;18.908;2023-07-29T04:57:26;97586.04;;;18.20;96.43
61898;BME280;47850;50.274;18.908;2023-07-29T04:59:53;97587.88;;;18.24;95.98
61898;BME280;47850;50.274;18.908;2023-07-29T05:02:21;97587.56;;;18.28;95.65
61898;BME280;47850;50.274;18.908;2023-07-29T05:04:49;97589.17;;;18.31;95.31
61898;BME280;47850;50.274;18.908;2023-07-29T05:07:17;97591.17;;;18.35;94.93
61898;BME280;47850;50.274;18.908;2023-07-29T05:09:45;97592.95;;;18.41;94.78
61898;BME280;47850;50.274;18.908;2023-07-29T05:12:12;97594.55;;;18.48;94.48
61898;BME280;47850;50.274;18.908;2023-07-29T05:14:40;97599.71;;;18.55;94.22
61898;BME280;47850;50.274;18.908;2023-07-29T05:17:08;97600.62;;;18.62;94.15
61898;BME280;47850;50.274;18.908;2023-07-29T05:19:35;97600.02;;;18.69;94.13
61898;BME280;47850;50.274;18.908;2023-07-29T05:22:03;97602.20;;;18.80;94.11
61898;BME280;47850;50.274;18.908;2023-07-29T05:24:31;97608.66;;;18.91;93.69
61898;BME280;47850;50.274;18.908;2023-07-29T05:26:59;97610.04;;;19.01;93.16
61898;BME280;47850;50.274;18.908;2023-07-29T05:29:29;97612.42;;;19.06;92.77
61898;BME280;47850;50.274;18.908;2023-07-29T05:31:56;97611.20;;;19.11;92.63
61898;BME280;47850;50.274;18.908;2023-07-29T05:34:24;97609.39;;;19.21;92.61
61898;BME280;47850;50.274;18.908;2023-07-29T05:36:52;97610.60;;;19.30;92.12
61898;BME280;47850;50.274;18.908;2023-07-29T05:39:20;97616.06;;;19.35;91.29
61898;BME280;47850;50.274;18.908;2023-07-29T05:41:47;97613.54;;;19.38;91.37
61898;BME280;47850;50.274;18.908;2023-07-29T05:44:15;97612.44;;;19.40;91.05
61898;BME280;47850;50.274;18.908;2023-07-29T05:46:43;97610.86;;;19.43;90.84
61898;BME280;47850;50.274;18.908;2023-07-29T05:49:11;97613.33;;;19.48;90.77
61898;BME280;47850;50.274;18.908;2023-07-29T05:51:39;97611.59;;;19.54;90.42
61898;BME280;47850;50.274;18.908;2023-07-29T05:54:07;97610.73;;;19.61;90.30
61898;BME280;47850;50.274;18.908;2023-07-29T05:56:35;97611.29;;;19.69;89.84
61898;BME280;47850;50.274;18.908;2023-07-29T05:59:02;97614.92;;;19.73;88.82
61898;BME280;47850;50.274;18.908;2023-07-29T06:01:30;97613.43;;;19.78;88.62
61898;BME280;47850;50.274;18.908;2023-07-29T06:03:58;97615.65;;;19.83;88.11
61898;BME280;47850;50.274;18.908;2023-07-29T06:06:26;97618.36;;;19.87;88.22
61898;BME280;47850;50.274;18.908;2023-07-29T06:08:54;97613.30;;;19.93;88.49
61898;BME280;47850;50.274;18.908;2023-07-29T06:11:21;97617.88;;;20.02;88.67
61898;BME280;47850;50.274;18.908;2023-07-29T06:13:49;97619.93;;;20.08;88.07
61898;BME280;47850;50.274;18.908;2023-07-29T06:16:17;97619.14;;;20.14;87.24
61898;BME280;47850;50.274;18.908;2023-07-29T06:18:45;97624.05;;;20.18;86.52
61898;BME280;47850;50.274;18.908;2023-07-29T06:21:13;97626.96;;;20.28;86.77
61898;BME280;47850;50.274;18.908;2023-07-29T06:23:44;97627.98;;;20.33;86.32
61898;BME280;47850;50.274;18.908;2023-07-29T06:26:12;97632.39;;;20.40;86.15
61898;BME280;47850;50.274;18.908;2023-07-29T06:28:40;97637.13;;;20.49;84.94
61898;BME280;47850;50.274;18.908;2023-07-29T06:31:07;97640.27;;;20.57;85.03
61898;BME280;47850;50.274;18.908;2023-07-29T06:33:35;97638.91;;;20.68;85.01
61898;BME280;47850;50.274;18.908;2023-07-29T06:36:03;97638.74;;;20.76;84.54
61898;BME280;47850;50.274;18.908;2023-07-29T06:38:31;97641.34;;;20.83;83.45
61898;BME280;47850;50.274;18.908;2023-07-29T06:40:59;97641.41;;;20.85;83.22
61898;BME280;47850;50.274;18.908;2023-07-29T06:43:26;97646.06;;;20.89;83.03
61898;BME280;47850;50.274;18.908;2023-07-29T06:45:54;97648.12;;;20.92;83.01
61898;BME280;47850;50.274;18.908;2023-07-29T06:48:23;97646.30;;;20.91;83.04
61898;BME280;47850;50.274;18.908;2023-07-29T06:50:50;97649.40;;;20.88;83.02
61898;BME280;47850;50.274;18.908;2023-07-29T06:53:18;97652.51;;;20.84;83.02
61898;BME280;47850;50.274;18.908;2023-07-29T06:55:46;97645.46;;;20.81;83.27
61898;BME280;47850;50.274;18.908;2023-07-29T06:58:14;97645.94;;;20.81;83.41
61898;BME280;47850;50.274;18.908;2023-07-29T07:00:41;97646.96;;;20.82;83.10
61898;BME280;47850;50.274;18.908;2023-07-29T07:03:09;97646.10;;;20.79;83.02
61898;BME280;47850;50.274;18.908;2023-07-29T07:05:37;97644.13;;;20.79;83.30
61898;BME280;47850;50.274;18.908;2023-07-29T07:08:05;97644.61;;;20.77;83.19
61898;BME280;47850;50.274;18.908;2023-07-29T07:10:32;97647.05;;;20.76;83.31
61898;BME280;47850;50.274;18.908;2023-07-29T07:13:01;97648.56;;;20.78;83.43
61898;BME280;47850;50.274;18.908;2023-07-29T07:15:29;97651.63;;;20.84;83.41
61898;BME280;47850;50.274;18.908;2023-07-29T07:17:56;97647.64;;;20.94;83.12
61898;BME280;47850;50.274;18.908;2023-07-29T07:20:24;97647.76;;;21.03;82.78
61898;BME280;47850;50.274;18.908;2023-07-29T07:22:52;97640.98;;;21.14;82.65
61898;BME280;47850;50.274;18.908;2023-07-29T07:25:20;97638.67;;;21.31;82.16
61898;BME280;47850;50.274;18.908;2023-07-29T07:27:47;97641.19;;;21.48;81.64
61898;BME280;47850;50.274;18.908;2023-07-29T07:30:16;97642.45;;;21.68;81.22
61898;BME280;47850;50.274;18.908;2023-07-29T07:32:44;97642.25;;;21.85;80.29
61898;BME280;47850;50.274;18.908;2023-07-29T07:35:12;97644.05;;;21.98;79.64
61898;BME280;47850;50.274;18.908;2023-07-29T07:37:44;97647.42;;;22.13;78.74
61898;BME280;47850;50.274;18.908;2023-07-29T07:40:12;97647.35;;;22.30;78.69
61898;BME280;47850;50.274;18.908;2023-07-29T07:42:40;97643.33;;;22.46;77.63
61898;BME280;47850;50.274;18.908;2023-07-29T07:45:07;97646.21;;;22.58;75.55
61898;BME280;47850;50.274;18.908;2023-07-29T07:47:37;97645.70;;;22.63;74.58
61898;BME280;47850;50.274;18.908;2023-07-29T07:50:05;97649.11;;;22.65;73.99
61898;BME280;47850;50.274;18.908;2023-07-29T07:52:32;97648.89;;;22.62;73.64
61898;BME280;47850;50.274;18.908;2023-07-29T07:55:00;97649.48;;;22.59;72.71
61898;BME280;47850;50.274;18.908;2023-07-29T07:57:28;97649.42;;;22.57;72.27
61898;BME280;47850;50.274;18.908;2023-07-29T07:59:56;97647.30;;;22.63;72.79
61898;BME280;47850;50.274;18.908;2023-07-29T08:02:23;97646.04;;;22.76;72.38
61898;BME280;47850;50.274;18.908;2023-07-29T08:04:51;97644.02;;;22.86;70.91
61898;BME280;47850;50.274;18.908;2023-07-29T08:07:19;97639.95;;;22.95;70.42
61898;BME280;47850;50.274;18.908;2023-07-29T08:09:47;97637.91;;;23.05;70.44
61898;BME280;47850;50.274;18.908;2023-07-29T08:12:14;97635.89;;;23.16;69.92
61898;BME280;47850;50.274;18.908;2023-07-29T08:14:42;97634.25;;;23.21;69.52
61898;BME280;47850;50.274;18.908;2023-07-29T08:17:10;97634.92;;;23.24;69.39
61898;BME280;47850;50.274;18.908;2023-07-29T08:19:37;97637.34;;;23.27;69.49
61898;BME280;47850;50.274;18.908;2023-07-29T08:22:05;97632.60;;;23.32;69.36
61898;BME280;47850;50.274;18.908;2023-07-29T08:24:33;97629.78;;;23.40;69.21
61898;BME280;47850;50.274;18.908;2023-07-29T08:27:01;97628.41;;;23.42;67.38
61898;BME280;47850;50.274;18.908;2023-07-29T08:29:29;97628.42;;;23.47;67.81
61898;BME280;47850;50.274;18.908;2023-07-29T08:31:57;97630.92;;;23.54;67.71
61898;BME280;47850;50.274;18.908;2023-07-29T08:34:25;97632.06;;;23.64;67.92
61898;BME280;47850;50.274;18.908;2023-07-29T08:36:52;97632.79;;;23.68;67.28
61898;BME280;47850;50.274;18.908;2023-07-29T08:39:20;97629.54;;;23.74;67.76
61898;BME280;47850;50.274;18.908;2023-07-29T08:42:03;97628.10;;;23.83;67.37
61898;BME280;47850;50.274;18.908;2023-07-29T08:44:40;97627.98;;;23.82;66.75
61898;BME280;47850;50.274;18.908;2023-07-29T08:47:09;97622.42;;;23.86;67.63
61898;BME280;47850;50.274;18.908;2023-07-29T08:49:38;97618.91;;;23.93;66.76
61898;BME280;47850;50.274;18.908;2023-07-29T08:52:07;97616.14;;;23.98;66.05
61898;BME280;47850;50.274;18.908;2023-07-29T08:54:35;97614.05;;;23.99;65.24
61898;BME280;47850;50.274;18.908;2023-07-29T08:57:03;97608.78;;;23.95;65.24
61898;BME280;47850;50.274;18.908;2023-07-29T08:59:32;97608.73;;;23.98;65.08
61898;BME280;47850;50.274;18.908;2023-07-29T09:02:01;97609.11;;;24.04;64.79
61898;BME280;47850;50.274;18.908;2023-07-29T09:04:29;97609.48;;;24.11;64.65
61898;BME280;47850;50.274;18.908;2023-07-29T09:06:58;97607.08;;;24.16;64.43
61898;BME280;47850;50.274;18.908;2023-07-29T09:09:26;97607.98;;;24.19;64.24
61898;BME280;47850;50.274;18.908;2023-07-29T09:11:54;97607.19;;;24.28;64.37
61898;BME280;47850;50.274;18.908;2023-07-29T09:14:23;97602.51;;;24.40;64.26
61898;BME280;47850;50.274;18.908;2023-07-29T09:16:51;97604.47;;;24.42;63.82
61898;BME280;47850;50.274;18.908;2023-07-29T09:19:19;97607.10;;;24.42;63.37
61898;BME280;47850;50.274;18.908;2023-07-29T09:21:47;97600.77;;;24.48;62.70
61898;BME280;47850;50.274;18.908;2023-07-29T09:24:16;97597.02;;;24.61;59.99
61898;BME280;47850;50.274;18.908;2023-07-29T09:26:50;97597.54;;;24.84;60.33
61898;BME280;47850;50.274;18.908;2023-07-29T09:29:22;97597.68;;;25.16;59.65
61898;BME280;47850;50.274;18.908;2023-07-29T09:31:50;97594.83;;;25.42;60.56
61898;BME280;47850;50.274;18.908;2023-07-29T09:34:18;97596.98;;;25.70;59.52
61898;BME280;47850;50.274;18.908;2023-07-29T09:36:45;97594.80;;;25.97;58.31
61898;BME280;47850;50.274;18.908;2023-07-29T09:39:13;97595.23;;;26.13;55.38
61898;BME280;47850;50.274;18.908;2023-07-29T09:41:41;97590.43;;;26.23;56.10
61898;BME280;47850;50.274;18.908;2023-07-29T09:44:14;97591.95;;;26.41;56.41
61898;BME280;47850;50.274;18.908;2023-07-29T09:46:45;97587.66;;;26.43;56.32
61898;BME280;47850;50.274;18.908;2023-07-29T09:49:13;97586.86;;;26.52;56.90
61898;BME280;47850;50.274;18.908;2023-07-29T09:51:41;97578.70;;;26.64;55.78
61898;BME280;47850;50.274;18.908;2023-07-29T09:54:10;97582.17;;;26.59;54.05
61898;BME280;47850;50.274;18.908;2023-07-29T09:56:41;97585.45;;;26.42;51.88
61898;BME280;47850;50.274;18.908;2023-07-29T09:59:12;97584.61;;;26.19;52.83
61898;BME280;47850;50.274;18.908;2023-07-29T10:01:40;97575.20;;;25.99;53.74
61898;BME280;47850;50.274;18.908;2023-07-29T10:04:09;97572.51;;;25.82;54.03
61898;BME280;47850;50.274;18.908;2023-07-29T10:06:38;97570.27;;;25.72;55.27
61898;BME280;47850;50.274;18.908;2023-07-29T10:09:07;97569.56;;;25.63;55.13
61898;BME280;47850;50.274;18.908;2023-07-29T10:11:35;97564.48;;;25.58;55.44
61898;BME280;47850;50.274;18.908;2023-07-29T10:14:03;97567.85;;;25.54;55.57
61898;BME280;47850;50.274;18.908;2023-07-29T10:16:32;97565.98;;;25.44;54.99
61898;BME280;47850;50.274;18.908;2023-07-29T10:19:00;97564.19;;;25.40;54.97
61898;BME280;47850;50.274;18.908;2023-07-29T10:21:29;97556.88;;;25.45;54.82
61898;BME280;47850;50.274;18.908;2023-07-29T10:24:01;97553.31;;;25.71;55.72
61898;BME280;47850;50.274;18.908;2023-07-29T10:26:33;97551.58;;;25.89;55.95
61898;BME280;47850;50.274;18.908;2023-07-29T10:29:04;97554.07;;;25.99;55.08
61898;BME280;47850;50.274;18.908;2023-07-29T10:31:37;97554.70;;;25.89;55.32
61898;BME280;47850;50.274;18.908;2023-07-29T10:34:06;97553.14;;;25.85;55.19
61898;BME280;47850;50.274;18.908;2023-07-29T10:36:35;97560.35;;;25.92;54.53
61898;BME280;47850;50.274;18.908;2023-07-29T10:39:03;97557.10;;;25.98;54.15
61898;BME280;47850;50.274;18.908;2023-07-29T10:42:03;97560.21;;;25.99;53.97
61898;BME280;47850;50.274;18.908;2023-07-29T10:47:14;97558.59;;;26.34;53.78
61898;BME280;47850;50.274;18.908;2023-07-29T10:49:45;97556.05;;;26.60;52.71
61898;BME280;47850;50.274;18.908;2023-07-29T10:52:14;97559.93;;;26.49;51.23
61898;BME280;47850;50.274;18.908;2023-07-29T10:54:47;97557.29;;;26.35;51.82
61898;BME280;47850;50.274;18.908;2023-07-29T10:57:30;97558.89;;;26.35;52.70
61898;BME280;47850;50.274;18.908;2023-07-29T10:59:58;97555.55;;;26.57;52.82
61898;BME280;47850;50.274;18.908;2023-07-29T11:02:35;97554.79;;;26.53;51.46
61898;BME280;47850;50.274;18.908;2023-07-29T11:05:17;97551.70;;;26.35;52.20
61898;BME280;47850;50.274;18.908;2023-07-29T11:07:47;97548.42;;;26.26;52.66
61898;BME280;47850;50.274;18.908;2023-07-29T11:10:15;97547.20;;;26.21;51.96
61898;BME280;47850;50.274;18.908;2023-07-29T11:12:47;97545.67;;;26.09;51.31
61898;BME280;47850;50.274;18.908;2023-07-29T11:15:16;97541.55;;;26.20;51.33
61898;BME280;47850;50.274;18.908;2023-07-29T11:20:17;97538.57;;;26.45;51.40
61898;BME280;47850;50.274;18.908;2023-07-29T11:22:45;97532.69;;;26.55;50.85
61898;BME280;47850;50.274;18.908;2023-07-29T11:25:16;97530.73;;;26.74;51.65
61898;BME280;47850;50.274;18.908;2023-07-29T11:27:45;97533.65;;;27.00;50.67
61898;BME280;47850;50.274;18.908;2023-07-29T11:30:15;97534.73;;;27.26;48.07
61898;BME280;47850;50.274;18.908;2023-07-29T11:32:45;97528.44;;;27.48;48.31
61898;BME280;47850;50.274;18.908;2023-07-29T11:35:17;97523.71;;;27.85;48.65
61898;BME280;47850;50.274;18.908;2023-07-29T11:37:47;97527.86;;;28.07;46.80
61898;BME280;47850;50.274;18.908;2023-07-29T11:40:16;97526.19;;;28.21;46.50
61898;BME280;47850;50.274;18.908;2023-07-29T11:42:48;97522.29;;;28.34;46.42
61898;BME280;47850;50.274;18.908;2023-07-29T11:45:21;97517.64;;;28.41;46.07
61898;BME280;47850;50.274;18.908;2023-07-29T11:47:48;97518.70;;;28.58;46.89
61898;BME280;47850;50.274;18.908;2023-07-29T11:50:16;97510.11;;;28.60;46.12
61898;BME280;47850;50.274;18.908;2023-07-29T11:52:46;97512.35;;;28.67;46.28
61898;BME280;47850;50.274;18.908;2023-07-29T11:55:15;97512.55;;;28.78;45.40
61898;BME280;47850;50.274;18.908;2023-07-29T11:57:43;97518.88;;;28.62;45.50
61898;BME280;47850;50.274;18.908;2023-07-29T12:00:12;97512.36;;;28.41;45.88
61898;BME280;47850;50.274;18.908;2023-07-29T12:02:42;97515.95;;;28.11;46.17
61898;BME280;47850;50.274;18.908;2023-07-29T12:05:14;97509.59;;;28.14;46.98
61898;BME280;47850;50.274;18.908;2023-07-29T12:07:44;97512.83;;;28.47;46.70
61898;BME280;47850;50.274;18.908;2023-07-29T12:10:12;97504.40;;;28.87;46.08
61898;BME280;47850;50.274;18.908;2023-07-29T12:12:50;97507.00;;;29.22;45.47
61898;BME280;47850;50.274;18.908;2023-07-29T12:15:29;97498.63;;;29.57;44.06
61898;BME280;47850;50.274;18.908;2023-07-29T12:17:59;97499.23;;;29.70;43.10
61898;BME280;47850;50.274;18.908;2023-07-29T12:20:29;97499.36;;;29.98;42.02
61898;BME280;47850;50.274;18.908;2023-07-29T12:22:59;97493.76;;;30.07;41.13
61898;BME280;47850;50.274;18.908;2023-07-29T12:25:30;97490.63;;;30.36;41.56
61898;BME280;47850;50.274;18.908;2023-07-29T12:28:07;97492.30;;;30.61;40.72
61898;BME280;47850;50.274;18.908;2023-07-29T12:30:41;97495.20;;;30.70;40.52
61898;BME280;47850;50.274;18.908;2023-07-29T12:33:09;97494.63;;;30.80;39.58
61898;BME280;47850;50.274;18.908;2023-07-29T12:35:37;97487.15;;;30.97;39.45
61898;BME280;47850;50.274;18.908;2023-07-29T12:38:05;97484.47;;;31.12;39.10
61898;BME280;47850;50.274;18.908;2023-07-29T12:40:38;97481.40;;;31.08;39.60
61898;BME280;47850;50.274;18.908;2023-07-29T12:43:07;97480.26;;;30.72;40.16
61898;BME280;47850;50.274;18.908;2023-07-29T12:45:36;97477.87;;;30.41;40.85
61898;BME280;47850;50.274;18.908;2023-07-29T12:48:04;97479.33;;;30.33;40.81
61898;BME280;47850;50.274;18.908;2023-07-29T12:50:31;97479.17;;;30.30;41.02
61898;BME280;47850;50.274;18.908;2023-07-29T12:52:59;97473.04;;;30.23;41.04
61898;BME280;47850;50.274;18.908;2023-07-29T12:55:27;97464.91;;;30.22;41.47
61898;BME280;47850;50.274;18.908;2023-07-29T12:57:55;97467.73;;;30.37;41.03
61898;BME280;47850;50.274;18.908;2023-07-29T13:00:23;97469.09;;;30.58;41.16
61898;BME280;47850;50.274;18.908;2023-07-29T13:02:51;97473.49;;;30.87;40.68
61898;BME280;47850;50.274;18.908;2023-07-29T13:05:19;97481.24;;;31.24;39.11
61898;BME280;47850;50.274;18.908;2023-07-29T13:07:47;97480.64;;;31.40;38.74
61898;BME280;47850;50.274;18.908;2023-07-29T13:10:14;97475.59;;;31.64;38.19